sensor_id;sensor_type;location;lat;lon;timestamp;pressure;altitude;pressure_sealevel;temperature;humidity
13954;BME280;7049;49.444;8.522;2023-01-05T00:02:01;78226.13;;;-3.47;100.00
13954;BME280;7049;49.444;8.522;2023-01-05T00:07:04;78236.59;;;-3.47;100.00
13954;BME280;7049;49.444;8.522;2023-01-05T00:12:06;78234.50;;;-3.47;100.00
13954;BME280;7049;49.444;8.522;2023-01-05T00:17:25;78226.13;;;-3.47;100.00
13954;BME280;7049;49.444;8.522;2023-01-05T00:22:47;78228.22;;;-3.47;100.00
13954;BME280;7049;49.444;8.522;2023-01-05T00:27:50;78209.38;;;-3.47;100.00
13954;BME280;7049;49.444;8.522;2023-01-05T00:32:53;78215.66;;;-3.47;100.00
13954;BME280;7049;49.444;8.522;2023-01-05T00:37:56;78211.47;;;-3.47;100.00
13954;BME280;7049;49.444;8.522;2023-01-05T00:42:57;78219.84;;;-3.47;100.00
13954;BME280;7049;49.444;8.522;2023-01-05T00:47:59;78215.66;;;-3.47;100.00
13954;BME280;7049;49.444;8.522;2023-01-05T00:53:02;78215.66;;;-3.47;100.00
13954;BME280;7049;49.444;8.522;2023-01-05T00:58:03;78215.66;;;-3.47;100.00
13954;BME280;7049;49.444;8.522;2023-01-05T01:03:05;78217.75;;;-3.47;100.00
13954;BME280;7049;49.444;8.522;2023-01-05T01:08:09;78226.13;;;-3.47;100.00
13954;BME280;7049;49.444;8.522;2023-01-05T01:13:11;78207.28;;;-3.47;100.00
13954;BME280;7049;49.444;8.522;2023-01-05T01:18:12;78203.09;;;-3.47;100.00
13954;BME280;7049;49.444;8.522;2023-01-05T01:23:15;78194.75;;;-3.47;100.00
13954;BME280;7049;49.444;8.522;2023-01-05T01:28:16;78188.47;;;-3.47;100.00
13954;BME280;7049;49.444;8.522;2023-01-05T01:33:18;78178.00;;;-3.47;100.00
13954;BME280;7049;49.444;8.522;2023-01-05T01:38:21;78180.09;;;-3.47;100.00
13954;BME280;7049;49.444;8.522;2023-01-05T01:43:41;78186.38;;;-3.47;100.00
13954;BME280;7049;49.444;8.522;2023-01-05T01:48:46;78190.56;;;-3.47;100.00
13954;BME280;7049;49.444;8.522;2023-01-05T01:53:52;78178.00;;;-3.47;100.00
13954;BME280;7049;49.444;8.522;2023-01-05T01:58:56;78175.91;;;-3.47;100.00
13954;BME280;7049;49.444;8.522;2023-01-05T02:03:57;78186.38;;;-3.47;100.00
13954;BME280;7049;49.444;8.522;2023-01-05T02:09:02;78169.63;;;-3.47;100.00
13954;BME280;7049;49.444;8.522;2023-01-05T02:14:11;78175.91;;;-3.47;100.00
13954;BME280;7049;49.444;8.522;2023-01-05T02:25:15;78167.53;;;-3.47;100.00
13954;BME280;7049;49.444;8.522;2023-01-05T02:31:00;78169.63;;;-3.47;100.00
13954;BME280;7049;49.444;8.522;2023-01-05T02:36:13;78178.00;;;-3.47;100.00
13954;BME280;7049;49.444;8.522;2023-01-05T02:41:20;78173.81;;;-3.47;100.00
13954;BME280;7049;49.444;8.522;2023-01-05T02:46:25;78159.16;;;-3.47;100.00
13954;BME280;7049;49.444;8.522;2023-01-05T02:51:30;78157.06;;;-3.47;100.00
13954;BME280;7049;49.444;8.522;2023-01-05T02:56:37;78152.88;;;-3.47;100.00
13954;BME280;7049;49.444;8.522;2023-01-05T03:01:44;78154.97;;;-3.47;100.00
13954;BME280;7049;49.444;8.522;2023-01-05T03:06:49;78148.69;;;-3.47;100.00
13954;BME280;7049;49.444;8.522;2023-01-05T03:11:59;78123.59;;;-3.47;100.00
13954;BME280;7049;49.444;8.522;2023-01-05T03:17:25;78123.59;;;-3.47;100.00
13954;BME280;7049;49.444;8.522;2023-01-05T03:22:30;78106.84;;;-3.47;100.00
13954;BME280;7049;49.444;8.522;2023-01-05T03:27:50;78106.84;;;-3.47;100.00
13954;BME280;7049;49.444;8.522;2023-01-05T03:33:13;78108.94;;;-3.47;100.00
13954;BME280;7049;49.444;8.522;2023-01-05T03:38:39;78121.50;;;-3.47;100.00
13954;BME280;7049;49.444;8.522;2023-01-05T03:43:45;78136.16;;;-3.47;100.00
13954;BME280;7049;49.444;8.522;2023-01-05T03:48:48;78159.16;;;-3.47;100.00
13954;BME280;7049;49.444;8.522;2023-01-05T03:53:50;78175.91;;;-3.47;100.00
13954;BME280;7049;49.444;8.522;2023-01-05T03:58:51;78173.81;;;-3.47;100.00
13954;BME280;7049;49.444;8.522;2023-01-05T04:03:54;78182.19;;;-3.47;100.00
13954;BME280;7049;49.444;8.522;2023-01-05T04:08:56;78186.38;;;-3.47;100.00
13954;BME280;7049;49.444;8.522;2023-01-05T04:13:57;78186.38;;;-3.47;100.00
13954;BME280;7049;49.444;8.522;2023-01-05T04:19:00;78201.00;;;-3.47;100.00
13954;BME280;7049;49.444;8.522;2023-01-05T04:24:02;78228.22;;;-3.47;100.00
13954;BME280;7049;49.444;8.522;2023-01-05T04:29:03;78244.97;;;-3.47;100.00
13954;BME280;7049;49.444;8.522;2023-01-05T04:34:07;78259.59;;;-3.47;99.13
13954;BME280;7049;49.444;8.522;2023-01-05T04:39:08;78270.06;;;-3.47;95.12
13954;BME280;7049;49.444;8.522;2023-01-05T04:44:10;78288.91;;;-3.47;95.69
13954;BME280;7049;49.444;8.522;2023-01-05T04:49:13;78305.66;;;-3.47;95.90
13954;BME280;7049;49.444;8.522;2023-01-05T04:54:14;78309.84;;;-3.47;90.39
13954;BME280;7049;49.444;8.522;2023-01-05T04:59:16;78311.94;;;-3.47;89.70
13954;BME280;7049;49.444;8.522;2023-01-05T05:04:19;78326.56;;;-3.47;91.10
13954;BME280;7049;49.444;8.522;2023-01-05T05:09:20;78328.66;;;-3.47;90.18
13954;BME280;7049;49.444;8.522;2023-01-05T05:14:22;78339.13;;;-3.47;90.77
13954;BME280;7049;49.444;8.522;2023-01-05T05:19:25;78343.31;;;-3.47;89.90
13954;BME280;7049;49.444;8.522;2023-01-05T05:24:26;78345.41;;;-3.47;88.92
13954;BME280;7049;49.444;8.522;2023-01-05T05:29:28;78351.69;;;-3.47;89.51
13954;BME280;7049;49.444;8.522;2023-01-05T05:34:30;78372.63;;;-3.47;91.08
13954;BME280;7049;49.444;8.522;2023-01-05T05:39:32;78381.00;;;-3.47;90.15
13954;BME280;7049;49.444;8.522;2023-01-05T05:44:33;78387.28;;;-3.47;90.95
13954;BME280;7049;49.444;8.522;2023-01-05T05:49:36;78404.00;;;-3.47;91.38
13954;BME280;7049;49.444;8.522;2023-01-05T05:54:37;78410.28;;;-3.47;91.98
13954;BME280;7049;49.444;8.522;2023-01-05T05:59:39;78420.75;;;-3.47;93.20
13954;BME280;7049;49.444;8.522;2023-01-05T06:04:42;78422.84;;;-3.47;92.39
13954;BME280;7049;49.444;8.522;2023-01-05T06:09:43;78414.47;;;-3.47;89.52
13954;BME280;7049;49.444;8.522;2023-01-05T06:14:45;78412.38;;;-3.47;88.62
13954;BME280;7049;49.444;8.522;2023-01-05T06:19:48;78397.72;;;-3.47;88.26
13954;BME280;7049;49.444;8.522;2023-01-05T06:24:49;78401.91;;;-3.47;88.55
13954;BME280;7049;49.444;8.522;2023-01-05T06:29:51;78408.19;;;-3.47;89.29
13954;BME280;7049;49.444;8.522;2023-01-05T06:34:53;78391.47;;;-3.47;90.00
13954;BME280;7049;49.444;8.522;2023-01-05T06:39:55;78393.56;;;-3.47;88.64
13954;BME280;7049;49.444;8.522;2023-01-05T06:44:56;78401.91;;;-3.47;88.57
13954;BME280;7049;49.444;8.522;2023-01-05T06:49:59;78412.38;;;-3.47;89.03
13954;BME280;7049;49.444;8.522;2023-01-05T06:55:01;78404.00;;;-3.47;89.32
13954;BME280;7049;49.444;8.522;2023-01-05T07:00:03;78401.91;;;-3.47;88.95
13954;BME280;7049;49.444;8.522;2023-01-05T07:05:08;78412.38;;;-3.47;89.21
13954;BME280;7049;49.444;8.522;2023-01-05T07:10:10;78395.66;;;-3.47;88.51
13954;BME280;7049;49.444;8.522;2023-01-05T07:15:11;78412.38;;;-3.47;89.17
13954;BME280;7049;49.444;8.522;2023-01-05T07:20:14;78414.47;;;-3.47;89.09
13954;BME280;7049;49.444;8.522;2023-01-05T07:25:16;78408.19;;;-3.47;88.07
13954;BME280;7049;49.444;8.522;2023-01-05T07:30:18;78395.66;;;-3.47;86.35
13954;BME280;7049;49.444;8.522;2023-01-05T07:35:20;78408.19;;;-3.47;86.76
13954;BME280;7049;49.444;8.522;2023-01-05T07:40:22;78408.19;;;-3.47;86.56
13954;BME280;7049;49.444;8.522;2023-01-05T07:45:23;78416.56;;;-3.47;86.76
13954;BME280;7049;49.444;8.522;2023-01-05T07:50:26;78431.22;;;-3.47;87.18
13954;BME280;7049;49.444;8.522;2023-01-05T07:55:31;78437.50;;;-3.47;86.46
13954;BME280;7049;49.444;8.522;2023-01-05T08:00:32;78429.13;;;-3.47;85.40
13954;BME280;7049;49.444;8.522;2023-01-05T08:05:35;78427.03;;;-3.47;84.35
13954;BME280;7049;49.444;8.522;2023-01-05T08:10:37;78424.94;;;-3.47;84.31
13954;BME280;7049;49.444;8.522;2023-01-05T08:15:38;78429.13;;;-3.47;84.07
13954;BME280;7049;49.444;8.522;2023-01-05T08:20:41;78435.41;;;-3.47;83.34
13954;BME280;7049;49.444;8.522;2023-01-05T08:25:43;78441.69;;;-3.47;83.83
13954;BME280;7049;49.444;8.522;2023-01-05T08:30:44;78454.25;;;-3.47;84.08
13954;BME280;7049;49.444;8.522;2023-01-05T08:35:48;78454.25;;;-3.47;84.38
13954;BME280;7049;49.444;8.522;2023-01-05T08:40:49;78458.44;;;-3.47;84.57
13954;BME280;7049;49.444;8.522;2023-01-05T08:45:51;78462.63;;;-3.47;84.73
13954;BME280;7049;49.444;8.522;2023-01-05T08:50:53;78462.63;;;-3.47;84.78
13954;BME280;7049;49.444;8.522;2023-01-05T08:55:55;78460.53;;;-3.47;84.17
13954;BME280;7049;49.444;8.522;2023-01-05T09:00:56;78452.16;;;-3.47;83.47
13954;BME280;7049;49.444;8.522;2023-01-05T09:05:59;78445.88;;;-3.47;83.56
13954;BME280;7049;49.444;8.522;2023-01-05T09:11:06;78458.44;;;-3.47;84.60
13954;BME280;7049;49.444;8.522;2023-01-05T09:16:10;78462.63;;;-3.47;84.78
13954;BME280;7049;49.444;8.522;2023-01-05T09:21:13;78462.63;;;-3.47;85.84
13954;BME280;7049;49.444;8.522;2023-01-05T09:26:15;78468.91;;;-3.47;86.17
13954;BME280;7049;49.444;8.522;2023-01-05T09:31:18;78466.81;;;-3.47;85.83
13954;BME280;7049;49.444;8.522;2023-01-05T09:36:21;78454.25;;;-3.47;84.66
13954;BME280;7049;49.444;8.522;2023-01-05T09:41:26;78445.88;;;-3.47;84.59
13954;BME280;7049;49.444;8.522;2023-01-05T09:46:32;78437.50;;;-3.47;84.53
13954;BME280;7049;49.444;8.522;2023-01-05T09:51:35;78454.25;;;-3.47;85.50
13954;BME280;7049;49.444;8.522;2023-01-05T09:56:38;78460.53;;;-3.47;86.36
13954;BME280;7049;49.444;8.522;2023-01-05T10:01:43;78447.97;;;-3.47;83.92
13954;BME280;7049;49.444;8.522;2023-01-05T10:06:50;78427.03;;;-3.47;82.63
13954;BME280;7049;49.444;8.522;2023-01-05T10:11:55;78437.50;;;-3.47;84.28
13954;BME280;7049;49.444;8.522;2023-01-05T10:17:18;78427.03;;;-3.47;83.98
13954;BME280;7049;49.444;8.522;2023-01-05T10:22:29;78404.00;;;-3.47;82.21
13954;BME280;7049;49.444;8.522;2023-01-05T10:27:38;78406.09;;;-3.47;83.29
13954;BME280;7049;49.444;8.522;2023-01-05T10:32:54;78391.47;;;-3.47;81.48
13954;BME280;7049;49.444;8.522;2023-01-05T10:38:13;78385.19;;;-3.47;81.02
13954;BME280;7049;49.444;8.522;2023-01-05T10:43:26;78381.00;;;-3.47;80.51
13954;BME280;7049;49.444;8.522;2023-01-05T10:48:34;78378.91;;;-3.47;80.49
13954;BME280;7049;49.444;8.522;2023-01-05T10:53:40;78374.72;;;-3.47;79.90
13954;BME280;7049;49.444;8.522;2023-01-05T10:58:44;78376.81;;;-3.47;79.46
13954;BME280;7049;49.444;8.522;2023-01-05T11:03:47;78376.81;;;-3.47;79.18
13954;BME280;7049;49.444;8.522;2023-01-05T11:08:51;78372.63;;;-3.47;78.78
13954;BME280;7049;49.444;8.522;2023-01-05T11:13:55;78366.34;;;-3.47;78.70
13954;BME280;7049;49.444;8.522;2023-01-05T11:18:59;78366.34;;;-3.47;79.04
13954;BME280;7049;49.444;8.522;2023-01-05T11:24:03;78364.25;;;-3.47;79.35
13954;BME280;7049;49.444;8.522;2023-01-05T11:29:13;78370.53;;;-3.47;79.22
13954;BME280;7049;49.444;8.522;2023-01-05T11:34:25;78366.34;;;-3.47;78.76
13954;BME280;7049;49.444;8.522;2023-01-05T11:39:31;78374.72;;;-3.47;79.66
13954;BME280;7049;49.444;8.522;2023-01-05T11:44:34;78378.91;;;-3.47;80.20
13954;BME280;7049;49.444;8.522;2023-01-05T11:49:36;78368.44;;;-3.47;79.72
13954;BME280;7049;49.444;8.522;2023-01-05T11:54:39;78372.63;;;-3.47;80.28
13954;BME280;7049;49.444;8.522;2023-01-05T11:59:41;78376.81;;;-3.47;79.66
13954;BME280;7049;49.444;8.522;2023-01-05T12:04:58;78357.97;;;-3.47;78.67
13954;BME280;7049;49.444;8.522;2023-01-05T12:10:24;78366.34;;;-3.47;79.32
13954;BME280;7049;49.444;8.522;2023-01-05T12:15:50;78366.34;;;-3.47;78.56
13954;BME280;7049;49.444;8.522;2023-01-05T12:21:00;78355.88;;;-3.47;77.46
13954;BME280;7049;49.444;8.522;2023-01-05T12:26:13;78362.16;;;-3.47;78.08
13954;BME280;7049;49.444;8.522;2023-01-05T12:31:30;78374.72;;;-3.47;78.12
13954;BME280;7049;49.444;8.522;2023-01-05T12:36:46;78374.72;;;-3.47;77.96
13954;BME280;7049;49.444;8.522;2023-01-05T12:42:01;78383.09;;;-3.47;78.64
13954;BME280;7049;49.444;8.522;2023-01-05T12:47:17;78385.19;;;-3.47;78.51
13954;BME280;7049;49.444;8.522;2023-01-05T12:52:24;78389.38;;;-3.47;78.92
13954;BME280;7049;49.444;8.522;2023-01-05T12:57:32;78391.47;;;-3.47;78.06
13954;BME280;7049;49.444;8.522;2023-01-05T13:02:37;78387.28;;;-3.47;77.82
13954;BME280;7049;49.444;8.522;2023-01-05T13:07:42;78381.00;;;-3.47;77.20
13954;BME280;7049;49.444;8.522;2023-01-05T13:12:49;78387.28;;;-3.47;77.61
13954;BME280;7049;49.444;8.522;2023-01-05T13:17:55;78381.00;;;-3.47;77.15
13954;BME280;7049;49.444;8.522;2023-01-05T13:23:00;78368.44;;;-3.47;78.09
13954;BME280;7049;49.444;8.522;2023-01-05T13:28:04;78372.63;;;-3.47;79.22
13954;BME280;7049;49.444;8.522;2023-01-05T13:33:23;78387.28;;;-3.47;80.29
13954;BME280;7049;49.444;8.522;2023-01-05T13:38:54;78391.47;;;-3.47;80.46
13954;BME280;7049;49.444;8.522;2023-01-05T13:44:27;78404.00;;;-3.47;80.46
13954;BME280;7049;49.444;8.522;2023-01-05T13:49:51;78404.00;;;-3.47;80.54
13954;BME280;7049;49.444;8.522;2023-01-05T13:54:58;78412.38;;;-3.47;80.53
13954;BME280;7049;49.444;8.522;2023-01-05T14:00:08;78404.00;;;-3.47;80.43
13954;BME280;7049;49.444;8.522;2023-01-05T14:05:25;78406.09;;;-3.47;79.95
13954;BME280;7049;49.444;8.522;2023-01-05T14:10:31;78410.28;;;-3.47;79.17
13954;BME280;7049;49.444;8.522;2023-01-05T14:15:39;78404.00;;;-3.47;76.16
13954;BME280;7049;49.444;8.522;2023-01-05T14:20:43;78412.38;;;-3.47;76.08
13954;BME280;7049;49.444;8.522;2023-01-05T14:25:49;78406.09;;;-3.47;76.07
13954;BME280;7049;49.444;8.522;2023-01-05T14:36:32;78395.66;;;-3.47;76.73
13954;BME280;7049;49.444;8.522;2023-01-05T14:41:35;78395.66;;;-3.47;76.62
13954;BME280;7049;49.444;8.522;2023-01-05T14:46:44;78414.47;;;-3.47;76.56
13954;BME280;7049;49.444;8.522;2023-01-05T14:51:53;78414.47;;;-3.47;77.16
13954;BME280;7049;49.444;8.522;2023-01-05T15:02:33;78427.03;;;-3.47;77.78
13954;BME280;7049;49.444;8.522;2023-01-05T15:07:44;78429.13;;;-3.47;77.70
13954;BME280;7049;49.444;8.522;2023-01-05T15:13:10;78441.69;;;-3.47;78.40
13954;BME280;7049;49.444;8.522;2023-01-05T15:29:35;78462.63;;;-3.47;80.08
13954;BME280;7049;49.444;8.522;2023-01-05T15:34:42;78462.63;;;-3.47;79.74
13954;BME280;7049;49.444;8.522;2023-01-05T15:39:47;78468.91;;;-3.47;80.37
13954;BME280;7049;49.444;8.522;2023-01-05T15:44:51;78475.16;;;-3.47;80.51
13954;BME280;7049;49.444;8.522;2023-01-05T15:49:54;78479.34;;;-3.47;81.30
13954;BME280;7049;49.444;8.522;2023-01-05T15:55:02;78475.16;;;-3.47;81.08
13954;BME280;7049;49.444;8.522;2023-01-05T16:00:15;78481.44;;;-3.47;81.12
13954;BME280;7049;49.444;8.522;2023-01-05T16:05:18;78496.09;;;-3.47;81.55
13954;BME280;7049;49.444;8.522;2023-01-05T16:10:24;78494.00;;;-3.47;82.02
13954;BME280;7049;49.444;8.522;2023-01-05T16:15:31;78508.66;;;-3.47;82.61
13954;BME280;7049;49.444;8.522;2023-01-05T16:20:35;78508.66;;;-3.47;82.61
13954;BME280;7049;49.444;8.522;2023-01-05T16:25:41;78504.47;;;-3.47;82.34
13954;BME280;7049;49.444;8.522;2023-01-05T16:30:44;78502.38;;;-3.47;82.64
13954;BME280;7049;49.444;8.522;2023-01-05T16:35:47;78508.66;;;-3.47;82.07
13954;BME280;7049;49.444;8.522;2023-01-05T16:41:02;78506.56;;;-3.47;82.58
13954;BME280;7049;49.444;8.522;2023-01-05T16:46:27;78498.19;;;-3.47;81.72
13954;BME280;7049;49.444;8.522;2023-01-05T16:51:41;78489.81;;;-3.47;81.11
13954;BME280;7049;49.444;8.522;2023-01-05T16:56:48;78496.09;;;-3.47;81.15
13954;BME280;7049;49.444;8.522;2023-01-05T17:01:52;78489.81;;;-3.47;80.56
13954;BME280;7049;49.444;8.522;2023-01-05T17:06:54;78475.16;;;-3.47;79.71
13954;BME280;7049;49.444;8.522;2023-01-05T17:11:58;78489.81;;;-3.47;80.41
13954;BME280;7049;49.444;8.522;2023-01-05T17:16:59;78494.00;;;-3.47;80.27
13954;BME280;7049;49.444;8.522;2023-01-05T17:22:01;78494.00;;;-3.47;80.80
13954;BME280;7049;49.444;8.522;2023-01-05T17:27:05;78483.53;;;-3.47;81.00
13954;BME280;7049;49.444;8.522;2023-01-05T17:32:06;78483.53;;;-3.47;80.70
13954;BME280;7049;49.444;8.522;2023-01-05T17:37:13;78494.00;;;-3.47;81.08
13954;BME280;7049;49.444;8.522;2023-01-05T17:42:17;78504.47;;;-3.47;81.71
13954;BME280;7049;49.444;8.522;2023-01-05T17:47:36;78502.38;;;-3.47;81.82
13954;BME280;7049;49.444;8.522;2023-01-05T17:52:38;78506.56;;;-3.47;82.48
13954;BME280;7049;49.444;8.522;2023-01-05T17:57:40;78496.09;;;-3.47;82.96
13954;BME280;7049;49.444;8.522;2023-01-05T18:02:42;78496.09;;;-3.47;83.39
13954;BME280;7049;49.444;8.522;2023-01-05T18:07:44;78514.94;;;-3.47;84.45
13954;BME280;7049;49.444;8.522;2023-01-05T18:12:47;78517.03;;;-3.47;84.68
13954;BME280;7049;49.444;8.522;2023-01-05T18:17:49;78517.03;;;-3.47;85.20
13954;BME280;7049;49.444;8.522;2023-01-05T18:22:50;78517.03;;;-3.47;85.52
13954;BME280;7049;49.444;8.522;2023-01-05T18:27:53;78521.22;;;-3.47;85.96
13954;BME280;7049;49.444;8.522;2023-01-05T18:32:54;78508.66;;;-3.47;86.10
13954;BME280;7049;49.444;8.522;2023-01-05T18:37:56;78525.41;;;-3.47;87.05
13954;BME280;7049;49.444;8.522;2023-01-05T18:43:01;78514.94;;;-3.47;87.39
13954;BME280;7049;49.444;8.522;2023-01-05T18:48:03;78525.41;;;-3.47;88.58
13954;BME280;7049;49.444;8.522;2023-01-05T18:53:04;78506.56;;;-3.47;89.02
13954;BME280;7049;49.444;8.522;2023-01-05T18:58:07;78500.28;;;-3.47;89.46
13954;BME280;7049;49.444;8.522;2023-01-05T19:03:09;78504.47;;;-3.47;89.98
13954;BME280;7049;49.444;8.522;2023-01-05T19:08:11;78494.00;;;-3.47;90.04
13954;BME280;7049;49.444;8.522;2023-01-05T19:13:14;78504.47;;;-3.47;90.68
13954;BME280;7049;49.444;8.522;2023-01-05T19:18:16;78506.56;;;-3.47;90.91
13954;BME280;7049;49.444;8.522;2023-01-05T19:23:17;78512.84;;;-3.47;91.34
13954;BME280;7049;49.444;8.522;2023-01-05T19:28:20;78512.84;;;-3.47;91.57
13954;BME280;7049;49.444;8.522;2023-01-05T19:33:21;78504.47;;;-3.47;92.01
13954;BME280;7049;49.444;8.522;2023-01-05T19:38:23;78514.94;;;-3.47;92.27
13954;BME280;7049;49.444;8.522;2023-01-05T19:43:26;78510.75;;;-3.47;92.46
13954;BME280;7049;49.444;8.522;2023-01-05T19:48:31;78508.66;;;-3.47;92.92
13954;BME280;7049;49.444;8.522;2023-01-05T19:53:34;78514.94;;;-3.47;92.90
13954;BME280;7049;49.444;8.522;2023-01-05T19:58:37;78508.66;;;-3.47;93.28
13954;BME280;7049;49.444;8.522;2023-01-05T20:03:39;78510.75;;;-3.47;93.98
13954;BME280;7049;49.444;8.522;2023-01-05T20:08:43;78512.84;;;-3.47;94.46
13954;BME280;7049;49.444;8.522;2023-01-05T20:13:50;78517.03;;;-3.47;95.30
13954;BME280;7049;49.444;8.522;2023-01-05T20:18:52;78512.84;;;-3.47;95.85
13954;BME280;7049;49.444;8.522;2023-01-05T20:23:53;78508.66;;;-3.47;97.12
13954;BME280;7049;49.444;8.522;2023-01-05T20:28:56;78485.63;;;-3.47;98.27
13954;BME280;7049;49.444;8.522;2023-01-05T20:34:01;78494.00;;;-3.47;98.92
13954;BME280;7049;49.444;8.522;2023-01-05T20:39:04;78500.28;;;-3.47;99.87
13954;BME280;7049;49.444;8.522;2023-01-05T20:44:08;78504.47;;;-3.47;100.00
13954;BME280;7049;49.444;8.522;2023-01-05T20:49:11;78489.81;;;-3.47;100.00
13954;BME280;7049;49.444;8.522;2023-01-05T20:54:13;78487.72;;;-3.47;100.00
13954;BME280;7049;49.444;8.522;2023-01-05T20:59:18;78496.09;;;-3.47;100.00
13954;BME280;7049;49.444;8.522;2023-01-05T21:04:23;78487.72;;;-3.47;100.00
13954;BME280;7049;49.444;8.522;2023-01-05T21:09:24;78491.91;;;-3.47;100.00
13954;BME280;7049;49.444;8.522;2023-01-05T21:14:28;78489.81;;;-3.47;100.00
13954;BME280;7049;49.444;8.522;2023-01-05T21:19:30;78487.72;;;-3.47;100.00
13954;BME280;7049;49.444;8.522;2023-01-05T21:24:31;78483.53;;;-3.47;100.00
13954;BME280;7049;49.444;8.522;2023-01-05T21:29:34;78475.16;;;-3.47;100.00
13954;BME280;7049;49.444;8.522;2023-01-05T21:34:36;78491.91;;;-3.47;100.00
13954;BME280;7049;49.444;8.522;2023-01-05T21:39:37;78479.34;;;-3.47;100.00
13954;BME280;7049;49.444;8.522;2023-01-05T21:44:40;78464.72;;;-3.47;100.00
13954;BME280;7049;49.444;8.522;2023-01-05T21:49:41;78466.81;;;-3.47;100.00
13954;BME280;7049;49.444;8.522;2023-01-05T21:54:43;78475.16;;;-3.47;100.00
13954;BME280;7049;49.444;8.522;2023-01-05T22:00:04;78462.63;;;-3.47;100.00
13954;BME280;7049;49.444;8.522;2023-01-05T22:05:06;78450.06;;;-3.47;100.00
13954;BME280;7049;49.444;8.522;2023-01-05T22:10:09;78447.97;;;-3.47;100.00
13954;BME280;7049;49.444;8.522;2023-01-05T22:15:12;78460.53;;;-3.47;100.00
13954;BME280;7049;49.444;8.522;2023-01-05T22:20:13;78466.81;;;-3.47;100.00
13954;BME280;7049;49.444;8.522;2023-01-05T22:25:15;78468.91;;;-3.47;100.00
13954;BME280;7049;49.444;8.522;2023-01-05T22:30:18;78468.91;;;-3.47;100.00
13954;BME280;7049;49.444;8.522;2023-01-05T22:35:19;78471.00;;;-3.47;100.00
13954;BME280;7049;49.444;8.522;2023-01-05T22:40:21;78464.72;;;-3.47;100.00
13954;BME280;7049;49.444;8.522;2023-01-05T22:45:24;78475.16;;;-3.47;100.00
13954;BME280;7049;49.444;8.522;2023-01-05T22:50:25;78479.34;;;-3.47;100.00
13954;BME280;7049;49.444;8.522;2023-01-05T22:55:27;78487.72;;;-3.47;100.00
13954;BME280;7049;49.444;8.522;2023-01-05T23:00:30;78487.72;;;-3.47;100.00
13954;BME280;7049;49.444;8.522;2023-01-05T23:05:31;78483.53;;;-3.47;100.00
13954;BME280;7049;49.444;8.522;2023-01-05T23:10:33;78489.81;;;-3.47;100.00
13954;BME280;7049;49.444;8.522;2023-01-05T23:15:36;78485.63;;;-3.47;100.00
13954;BME280;7049;49.444;8.522;2023-01-05T23:20:37;78479.34;;;-3.47;100.00
13954;BME280;7049;49.444;8.522;2023-01-05T23:25:38;78479.34;;;-3.47;100.00
13954;BME280;7049;49.444;8.522;2023-01-05T23:30:41;78477.25;;;-3.47;100.00
13954;BME280;7049;49.444;8.522;2023-01-05T23:35:43;78475.16;;;-3.47;100.00
13954;BME280;7049;49.444;8.522;2023-01-05T23:40:46;78471.00;;;-3.47;100.00
13954;BME280;7049;49.444;8.522;2023-01-05T23:45:51;78464.72;;;-3.47;100.00
13954;BME280;7049;49.444;8.522;2023-01-05T23:50:58;78458.44;;;-3.47;100.00
13954;BME280;7049;49.444;8.522;2023-01-05T23:56:04;78462.63;;;-3.47;100.00
